createdAt,value
2023-02-03T00:00:05.232Z,1221.00
2023-02-03T00:01:05.270Z,1219.00
2023-02-03T00:02:05.365Z,1218.00
2023-02-03T00:03:05.385Z,1219.00
2023-02-03T00:04:05.424Z,1221.00
2023-02-03T00:05:05.465Z,1218.00
2023-02-03T00:06:05.525Z,1216.00
2023-02-03T00:07:05.577Z,1213.00
2023-02-03T00:08:05.632Z,1215.00
2023-02-03T00:09:05.672Z,1219.00
2023-02-03T00:10:05.738Z,1220.00
2023-02-03T00:11:05.785Z,1219.00
2023-02-03T00:12:05.835Z,1221.00
2023-02-03T00:13:05.880Z,1219.00
2023-02-03T00:14:05.939Z,1214.00
2023-02-03T00:15:05.999Z,1210.00
2023-02-03T00:16:06.107Z,1211.00
2023-02-03T00:17:06.105Z,1210.00
2023-02-03T00:18:06.154Z,1210.00
2023-02-03T00:19:06.204Z,1210.00
2023-02-03T00:20:06.279Z,1211.00
2023-02-03T00:21:06.313Z,1211.00
2023-02-03T00:22:06.376Z,1209.00
2023-02-03T00:23:06.435Z,1208.00
2023-02-03T00:24:06.485Z,1208.00
2023-02-03T00:25:06.540Z,1204.00
2023-02-03T00:26:06.610Z,1207.00
2023-02-03T00:27:06.671Z,1204.00
2023-02-03T00:28:06.751Z,1205.00
2023-02-03T00:29:06.762Z,1209.00
2023-02-03T00:30:06.814Z,1209.00
2023-02-03T00:31:06.967Z,1211.00
2023-02-03T00:32:07.048Z,1208.00
2023-02-03T00:33:06.993Z,1205.00
2023-02-03T00:34:07.046Z,1206.00
2023-02-03T00:35:07.110Z,1204.00
2023-02-03T00:36:07.175Z,1206.00
2023-02-03T00:37:07.226Z,1202.00
2023-02-03T00:38:07.277Z,1203.00
2023-02-03T00:39:07.330Z,1205.00
2023-02-03T00:40:07.396Z,1206.00
2023-02-03T00:41:07.453Z,1206.00
2023-02-03T00:42:07.505Z,1204.00
2023-02-03T00:43:07.561Z,1207.00
2023-02-03T00:44:07.627Z,1207.00
2023-02-03T00:45:07.665Z,1205.00
2023-02-03T00:46:07.740Z,1205.00
2023-02-03T00:47:07.750Z,1205.00
2023-02-03T00:48:07.793Z,1203.00
2023-02-03T00:49:07.854Z,1202.00
2023-02-03T00:50:07.880Z,1203.00
2023-02-03T00:51:07.936Z,1199.00
2023-02-03T00:52:07.979Z,1198.00
2023-02-03T00:53:08.030Z,1193.00
2023-02-03T01:25:09.694Z,1166.00
2023-02-03T01:26:09.735Z,1163.00
2023-02-03T01:27:09.790Z,1164.00
2023-02-03T01:28:09.902Z,1164.00
2023-02-03T01:29:09.904Z,1161.00
2023-02-03T01:30:09.955Z,1159.00
2023-02-03T01:31:10.135Z,1156.00
2023-02-03T01:32:10.074Z,1156.00
2023-02-03T01:33:10.120Z,1152.00
2023-02-03T01:34:10.168Z,1151.00
2023-02-03T01:35:10.213Z,1148.00
2023-02-03T01:36:10.265Z,1145.00
2023-02-03T02:37:13.381Z,1120.00
2023-02-03T02:38:13.456Z,1121.00
2023-02-03T02:39:13.502Z,1120.00
2023-02-03T02:40:13.558Z,1121.00
2023-02-03T02:41:13.607Z,1121.00
2023-02-03T02:42:13.655Z,1116.00
2023-02-03T02:43:13.692Z,1114.00
2023-02-03T02:44:13.738Z,1115.00
2023-02-03T02:45:13.787Z,1117.00
2023-02-03T02:46:13.845Z,1118.00
2023-02-03T02:47:13.867Z,1119.00
2023-02-03T02:48:13.924Z,1118.00
2023-02-03T02:49:13.975Z,1121.00
2023-02-03T02:50:14.021Z,1121.00
2023-02-03T02:51:14.046Z,1118.00
2023-02-03T02:53:14.162Z,1111.00
2023-02-03T02:54:14.217Z,1111.00
2023-02-03T02:55:14.283Z,1109.00
2023-02-03T02:56:15.654Z,1111.00
2023-02-03T06:17:23.377Z,988.00
2023-02-03T06:18:23.403Z,989.00
2023-02-03T06:19:23.436Z,988.00
2023-02-03T06:20:23.473Z,985.00
2023-02-03T06:21:23.506Z,982.00
2023-02-03T06:22:23.557Z,977.00
2023-02-03T06:23:23.585Z,972.00
2023-02-03T06:24:23.616Z,964.00
2023-02-03T06:25:23.658Z,934.00
2023-02-03T06:26:23.702Z,935.00
2023-02-03T06:27:23.732Z,943.00
2023-02-03T06:28:23.774Z,963.00
2023-02-03T06:29:23.809Z,975.00
2023-02-03T06:30:23.912Z,987.00
2023-02-03T06:31:23.992Z,1015.00
2023-02-03T06:32:23.919Z,1042.00
2023-02-03T06:33:23.952Z,1047.00
2023-02-03T06:34:23.984Z,1054.00
2023-02-03T06:35:24.023Z,1112.00
2023-02-03T06:36:24.049Z,1131.00
2023-02-03T06:37:24.951Z,1147.00
2023-02-03T06:38:24.116Z,1166.00
2023-02-03T06:39:24.107Z,1229.00
2023-02-03T06:40:24.111Z,1293.00
2023-02-03T06:41:24.135Z,1297.00
2023-02-03T06:42:24.148Z,1293.00
2023-02-03T06:43:24.165Z,1298.00
2023-02-03T06:44:24.158Z,1311.00
2023-02-03T06:45:24.153Z,1324.00
2023-02-03T06:46:24.173Z,1356.00
2023-02-03T06:47:24.159Z,1379.00
2023-02-03T06:48:24.150Z,1457.00
2023-02-03T06:49:24.142Z,1463.00
2023-02-03T06:50:24.139Z,1479.00
2023-02-03T06:51:25.013Z,1501.00
2023-02-03T06:52:24.184Z,1543.00
2023-02-03T06:53:24.106Z,1558.00
2023-02-03T06:54:24.088Z,1593.00
2023-02-03T06:55:24.078Z,1647.00
2023-02-03T06:56:24.096Z,1648.00
2023-02-03T06:57:24.056Z,1660.00
2023-02-03T06:58:24.053Z,1592.00
2023-02-03T06:59:24.039Z,1647.00
2023-02-03T07:00:24.042Z,1651.00
2023-02-03T07:01:24.065Z,1649.00
2023-02-03T07:02:24.083Z,1651.00
2023-02-03T07:03:24.085Z,1640.00
2023-02-03T07:04:24.072Z,1611.00
2023-02-03T07:05:24.080Z,1624.00
2023-02-03T07:06:24.097Z,1623.00
2023-02-03T07:07:24.120Z,1567.00
2023-02-03T07:08:24.139Z,1388.00
2023-02-03T07:09:24.182Z,1349.00
2023-02-03T07:10:24.182Z,1461.00
2023-02-03T07:11:24.218Z,1463.00
2023-02-03T07:12:24.229Z,1444.00
2023-02-03T07:13:24.277Z,1461.00
2023-02-03T07:14:24.281Z,1472.00
2023-02-03T07:15:24.313Z,1357.00
2023-02-03T07:16:24.347Z,1416.00
2023-02-03T07:17:24.366Z,1430.00
2023-02-03T07:18:45.778Z,1378.00
2023-02-03T07:19:25.367Z,1396.00
2023-02-03T07:20:24.375Z,1441.00
2023-02-03T07:21:24.339Z,1457.00
2023-02-03T07:22:24.313Z,1399.00
2023-02-03T07:23:24.320Z,1380.00
2023-02-03T07:24:24.270Z,1214.00
2023-02-03T07:25:24.251Z,1357.00
2023-02-03T07:26:24.245Z,1351.00
2023-02-03T07:27:24.272Z,1365.00
2023-02-03T07:28:24.204Z,1386.00
2023-02-03T07:29:24.193Z,1420.00
2023-02-03T07:30:25.153Z,1438.00
2023-02-03T07:31:24.274Z,1455.00
2023-02-03T07:32:24.184Z,1476.00
2023-02-03T07:33:24.169Z,1505.00
2023-02-03T07:34:24.130Z,1518.00
2023-02-03T07:35:24.076Z,1523.00
2023-02-03T07:36:24.054Z,1540.00
2023-02-03T07:37:24.020Z,1550.00
2023-02-03T07:38:24.018Z,1554.00
2023-02-03T07:39:24.007Z,1562.00
2023-02-03T07:40:24.003Z,1573.00
2023-02-03T07:41:23.988Z,1589.00
2023-02-03T07:42:24.969Z,1618.00
2023-02-03T07:43:23.953Z,1629.00
2023-02-03T07:44:23.957Z,1636.00
2023-02-03T07:45:23.911Z,1640.00
2023-02-03T07:46:23.917Z,1647.00
2023-02-03T07:47:23.885Z,1659.00
2023-02-03T07:48:23.852Z,1671.00
2023-02-03T07:49:23.833Z,1692.00
2023-02-03T07:50:23.825Z,1701.00
2023-02-03T07:51:23.801Z,1707.00
2023-02-03T07:52:23.774Z,1719.00
2023-02-03T07:53:23.762Z,1732.00
2023-02-03T07:54:23.801Z,1755.00
2023-02-03T07:55:23.710Z,1768.00
2023-02-03T07:56:23.676Z,1780.00
2023-02-03T07:57:23.660Z,1785.00
2023-02-03T07:58:23.647Z,1798.00
2023-02-03T07:59:23.632Z,1807.00
2023-02-03T08:00:23.614Z,1818.00
2023-02-03T08:01:23.626Z,1845.00
2023-02-03T08:02:23.575Z,1857.00
2023-02-03T08:03:23.547Z,1862.00
2023-02-03T08:04:23.544Z,1876.00
2023-02-03T08:05:23.523Z,1891.00
2023-02-03T08:06:23.497Z,1900.00
2023-02-03T08:07:23.460Z,1902.00
2023-02-03T08:08:23.438Z,1914.00
2023-02-03T08:09:23.421Z,1928.00
2023-02-03T08:10:23.381Z,1938.00
2023-02-03T08:44:23.392Z,2209.00
2023-02-03T08:45:23.444Z,2226.00
2023-02-03T08:46:23.444Z,2227.00
2023-02-03T08:47:23.495Z,2236.00
2023-02-03T08:48:23.530Z,2256.00
2023-02-03T08:49:23.583Z,2266.00
2023-02-03T08:50:23.609Z,2280.00
2023-02-03T08:51:23.665Z,2286.00
2023-02-03T08:52:23.664Z,2297.00
2023-02-03T08:53:23.695Z,2308.00
2023-02-03T08:54:23.740Z,2315.00
2023-02-03T08:55:23.770Z,2333.00
2023-02-03T08:56:23.800Z,2349.00
2023-02-03T08:57:23.830Z,2364.00
2023-02-03T08:58:23.869Z,2383.00
2023-02-03T08:59:23.903Z,2402.00
2023-02-03T09:00:23.963Z,2407.00
2023-02-03T09:01:24.056Z,2423.00
2023-02-03T09:02:24.035Z,2441.00
2023-02-03T09:03:24.094Z,2449.00
2023-02-03T09:04:24.214Z,2468.00
2023-02-03T09:05:24.194Z,2482.00
2023-02-03T09:12:24.361Z,2598.00
2023-02-03T09:22:24.294Z,2745.00
2023-02-03T09:24:24.376Z,2766.00
2023-02-03T09:55:25.209Z,3298.00
2023-02-03T09:59:25.068Z,3391.00
2023-02-03T10:00:26.066Z,3423.00
2023-02-03T10:02:25.038Z,3496.00
2023-02-03T10:03:24.955Z,3503.00
2023-02-03T10:04:24.925Z,3522.00
2023-02-03T10:05:24.894Z,3536.00
2023-02-03T10:06:24.937Z,3553.00
2023-02-03T10:07:24.928Z,3574.00
2023-02-03T10:08:24.944Z,3593.00
2023-02-03T10:09:24.963Z,3603.00
2023-02-03T10:10:25.042Z,3614.00
2023-02-03T10:11:24.990Z,3628.00
2023-02-03T10:12:25.579Z,3653.00
2023-02-03T10:13:25.013Z,3669.00
2023-02-03T10:14:25.046Z,3688.00
2023-02-03T10:15:25.071Z,3713.00
2023-02-03T10:16:25.111Z,3740.00
2023-02-03T10:17:25.066Z,3755.00
2023-02-03T10:18:25.087Z,3676.00
2023-02-03T10:19:25.107Z,3758.00
2023-02-03T10:20:25.538Z,3745.00
2023-02-03T10:21:25.147Z,3720.00
2023-02-03T10:22:25.173Z,3708.00
2023-02-03T10:23:25.205Z,3699.00
2023-02-03T10:24:25.216Z,3685.00
2023-02-03T10:25:25.294Z,3666.00
2023-02-03T20:06:08.547Z,1294.00
2023-02-03T20:13:08.108Z,1286.00
2023-02-03T20:14:08.133Z,1285.00
2023-02-03T20:15:08.181Z,1288.00
2023-02-03T20:16:08.272Z,1287.00
2023-02-03T20:17:08.310Z,1285.00
2023-02-03T20:18:08.392Z,1279.00
2023-02-03T20:19:08.466Z,1280.00
2023-02-03T20:20:08.578Z,1278.00
2023-02-03T20:21:08.663Z,1281.00
2023-02-03T20:22:08.761Z,1278.00
2023-02-03T20:23:08.810Z,1278.00
2023-02-03T20:24:08.891Z,1280.00
2023-02-03T20:25:08.981Z,1283.00
2023-02-03T20:26:09.041Z,1281.00
2023-02-03T20:27:09.144Z,1280.00
2023-02-03T20:28:09.261Z,1281.00
2023-02-03T20:29:09.269Z,1280.00
2023-02-03T20:30:09.372Z,1278.00
2023-02-03T20:31:09.542Z,1276.00
2023-02-03T20:32:09.561Z,1273.00
2023-02-03T20:33:09.542Z,1272.00
2023-02-03T20:34:09.613Z,1268.00
2023-02-03T20:35:09.667Z,1268.00
2023-02-03T20:36:11.463Z,1272.00
2023-02-03T20:37:09.844Z,1275.00
2023-02-03T20:38:09.920Z,1275.00
2023-02-03T20:39:10.006Z,1275.00
2023-02-03T20:40:10.096Z,1275.00
2023-02-03T20:41:10.166Z,1274.00
2023-02-03T20:42:10.237Z,1272.00
2023-02-03T20:43:10.324Z,1272.00
2023-02-03T20:44:10.409Z,1270.00
2023-02-03T20:45:10.493Z,1271.00
2023-02-03T20:46:10.535Z,1271.00
2023-02-03T20:47:10.592Z,1267.00
2023-02-03T20:48:10.746Z,1264.00
2023-02-03T20:49:10.768Z,1263.00
2023-02-03T20:50:10.855Z,1261.00
2023-02-03T20:51:10.929Z,1259.00
2023-02-03T20:52:10.992Z,1260.00
2023-02-03T20:53:11.086Z,1264.00
2023-02-03T20:54:11.157Z,1263.00
2023-02-03T20:55:11.248Z,1261.00
2023-02-03T20:56:11.304Z,1260.00
2023-02-03T20:57:11.352Z,1258.00
2023-02-03T20:58:11.399Z,1256.00
2023-02-03T20:59:11.443Z,1257.00
2023-02-03T21:00:11.494Z,1260.00
2023-02-03T21:01:11.579Z,1258.00
2023-02-03T21:02:11.641Z,1255.00
2023-02-03T21:03:11.629Z,1252.00
2023-02-03T21:04:12.051Z,1255.00
2023-02-03T21:05:11.781Z,1253.00
2023-02-03T21:06:11.852Z,1251.00
2023-02-03T21:07:11.934Z,1250.00
2023-02-03T21:08:12.005Z,1249.00
2023-02-03T21:09:12.084Z,1248.00
2023-02-03T21:10:12.141Z,1249.00
2023-02-03T21:11:12.224Z,1250.00
2023-02-03T21:12:12.298Z,1254.00
2023-02-03T21:13:12.403Z,1255.00
2023-02-03T21:14:12.460Z,1255.00
2023-02-03T21:15:12.541Z,1256.00
2023-02-03T21:16:12.701Z,1255.00
2023-02-03T21:17:12.696Z,1256.00
2023-02-03T21:18:12.746Z,1254.00
2023-02-03T21:19:12.821Z,1253.00
2023-02-03T21:20:12.906Z,1252.00
2023-02-03T21:21:12.951Z,1250.00
2023-02-03T21:22:13.019Z,1249.00
2023-02-03T21:23:13.108Z,1250.00
2023-02-03T21:24:13.155Z,1250.00
2023-02-03T21:25:13.234Z,1247.00
2023-02-03T21:26:13.302Z,1245.00
2023-02-03T21:27:13.354Z,1243.00
2023-02-03T21:28:13.504Z,1244.00
2023-02-03T21:29:13.545Z,1249.00
2023-02-03T21:30:13.625Z,1249.00
2023-02-03T21:31:13.767Z,1245.00
2023-02-03T21:32:13.790Z,1242.00
2023-02-03T21:33:13.866Z,1245.00
2023-02-03T21:34:13.967Z,1246.00
2023-02-03T21:35:14.058Z,1248.00
2023-02-03T21:36:14.139Z,1245.00
2023-02-03T21:37:14.226Z,1243.00
2023-02-03T21:38:14.304Z,1241.00
2023-02-03T21:39:14.396Z,1243.00
2023-02-03T21:40:14.445Z,1243.00
2023-02-03T21:41:14.500Z,1243.00
2023-02-03T21:42:14.569Z,1243.00
2023-02-03T21:43:14.592Z,1242.00
2023-02-03T21:44:14.651Z,1243.00
2023-02-03T21:45:14.742Z,1244.00
2023-02-03T21:46:14.872Z,1243.00
2023-02-03T21:47:14.939Z,1242.00
2023-02-03T21:48:15.025Z,1236.00
2023-02-03T21:49:15.105Z,1234.00
2023-02-03T21:50:16.134Z,1235.00
2023-02-03T21:51:15.156Z,1234.00
2023-02-03T21:52:15.176Z,1233.00
2023-02-03T21:53:15.203Z,1236.00
2023-02-03T21:54:15.218Z,1237.00
2023-02-03T21:55:15.240Z,1236.00
2023-02-03T21:56:15.255Z,1238.00
2023-02-03T21:57:15.265Z,1238.00
2023-02-03T21:58:15.305Z,1237.00
2023-02-03T21:59:15.317Z,1236.00
2023-02-03T22:00:15.356Z,1234.00
2023-02-03T22:01:15.382Z,1233.00
2023-02-03T22:02:15.366Z,1235.00
2023-02-03T22:03:15.417Z,1234.00
2023-02-03T22:04:15.512Z,1231.00
2023-02-03T22:05:15.582Z,1228.00
2023-02-03T22:06:15.677Z,1226.00
2023-02-03T22:07:15.758Z,1225.00
2023-02-03T22:08:15.833Z,1227.00
2023-02-03T22:09:15.922Z,1227.00
2023-02-03T22:10:16.023Z,1227.00
2023-02-03T22:11:16.116Z,1225.00
2023-02-03T22:12:16.191Z,1225.00
2023-02-03T22:13:16.207Z,1224.00
2023-02-03T22:14:16.228Z,1224.00
2023-02-03T22:15:16.263Z,1222.00
2023-02-03T22:16:16.306Z,1222.00
2023-02-03T22:17:16.297Z,1224.00
2023-02-03T22:18:16.308Z,1218.00
2023-02-03T22:19:16.344Z,1217.00
2023-02-03T22:20:16.371Z,1214.00
2023-02-03T22:21:16.414Z,1212.00
2023-02-03T22:22:16.472Z,1215.00
2023-02-03T22:23:16.510Z,1209.00
2023-02-03T22:24:16.573Z,1209.00
2023-02-03T22:25:16.617Z,1207.00
2023-02-03T22:26:16.695Z,1209.00
2023-02-03T22:27:16.752Z,1209.00
2023-02-03T22:28:16.921Z,1207.00
2023-02-03T22:29:16.907Z,1209.00
2023-02-03T22:30:16.966Z,1214.00
2023-02-03T22:31:17.135Z,1214.00
2023-02-03T22:32:17.064Z,1209.00
2023-02-03T22:33:17.117Z,1210.00
2023-02-03T22:34:17.162Z,1213.00
2023-02-03T22:35:17.206Z,1213.00
2023-02-03T22:36:17.251Z,1215.00
2023-02-03T22:37:17.300Z,1216.00
2023-02-03T22:38:17.347Z,1219.00
2023-02-03T22:39:17.432Z,1217.00
2023-02-03T22:40:17.461Z,1215.00
2023-02-03T22:41:17.493Z,1214.00
2023-02-03T22:42:17.554Z,1211.00
2023-02-03T22:43:17.583Z,1210.00
2023-02-03T22:44:17.669Z,1209.00
2023-02-03T22:45:17.665Z,1204.00
2023-02-03T22:46:17.764Z,1204.00
2023-02-03T22:47:17.778Z,1207.00
2023-02-03T22:48:17.845Z,1203.00
2023-02-03T22:49:17.907Z,1203.00
2023-02-03T22:50:24.637Z,1202.00
2023-02-03T22:51:18.986Z,1202.00
2023-02-03T22:52:18.014Z,1202.00
2023-02-03T22:53:18.031Z,1200.00
2023-02-03T22:54:18.044Z,1199.00
2023-02-03T22:55:18.078Z,1201.00
2023-02-03T22:56:18.095Z,1203.00
2023-02-03T22:57:18.121Z,1202.00
2023-02-03T22:58:18.171Z,1200.00
2023-02-03T22:59:18.169Z,1200.00
2023-02-03T23:00:18.188Z,1201.00
2023-02-03T23:01:18.206Z,1200.00
2023-02-03T23:02:18.219Z,1198.00
2023-02-03T23:03:18.303Z,1197.00
2023-02-03T23:04:18.282Z,1198.00
2023-02-03T23:05:18.286Z,1199.00
2023-02-03T23:06:18.318Z,1197.00
2023-02-03T23:07:18.372Z,1196.00
2023-02-03T23:08:18.473Z,1194.00
2023-02-03T23:09:18.523Z,1196.00
2023-02-03T23:10:18.583Z,1194.00
2023-02-03T23:11:18.665Z,1191.00
2023-02-03T23:12:18.734Z,1192.00
2023-02-03T23:13:18.828Z,1194.00
2023-02-03T23:14:18.911Z,1196.00
2023-02-03T23:15:19.594Z,1195.00
2023-02-03T23:16:19.170Z,1196.00
2023-02-03T23:17:19.161Z,1197.00
2023-02-03T23:18:19.231Z,1197.00
2023-02-03T23:19:19.475Z,1196.00
2023-02-03T23:20:19.444Z,1196.00
2023-02-03T23:21:19.423Z,1193.00
2023-02-03T23:22:19.482Z,1194.00
2023-02-03T23:23:19.545Z,1195.00
2023-02-03T23:24:19.613Z,1193.00
2023-02-03T23:25:19.678Z,1192.00
2023-02-03T23:26:19.766Z,1193.00
2023-02-03T23:27:19.833Z,1187.00
2023-02-03T23:28:19.927Z,1184.00
2023-02-03T23:29:19.989Z,1185.00
2023-02-03T23:30:20.071Z,1184.00
2023-02-03T23:31:20.219Z,1182.00
2023-02-03T23:32:20.154Z,1182.00
2023-02-03T23:33:20.222Z,1180.00
2023-02-03T23:34:20.311Z,1178.00
2023-02-03T23:35:20.415Z,1175.00
2023-02-03T23:36:20.488Z,1178.00
2023-02-03T23:37:20.582Z,1176.00
2023-02-03T23:38:20.685Z,1174.00
2023-02-03T23:39:20.745Z,1174.00
2023-02-03T23:40:20.822Z,1174.00
2023-02-03T23:41:20.883Z,1174.00
2023-02-03T23:42:20.961Z,1176.00
2023-02-03T23:43:21.019Z,1173.00
2023-02-03T23:44:21.090Z,1171.00
2023-02-03T23:45:21.174Z,1169.00
2023-02-03T23:46:21.260Z,1167.00
2023-02-03T23:47:21.300Z,1169.00
2023-02-03T23:48:21.380Z,1166.00
2023-02-03T23:49:21.402Z,1163.00
